»·PEaware :: DAL5220 KPDX-KJAC

DAL5220 :: KPDX-KJAC

FLIGHT INFORMATION

Flight Status: Arrived
Operator:
Delta Air Lines
More flights by this operator :: More flights under this callsign
Pilot: David M. (11480)
Aircraft: BOEING 737-800
(B738)
More flights by this aircraft type
Origin: KPDX Portland Intl
United States
Destination: KJAC Jackson Hole
United States
More flights between these airports :: More routes between these airports
Route: LAVAA6 PDT J20 DNJ J82 DBS DNW
File this flight plan on PilotEdge
Remarks: RMK / SIMBRIEF
Altitude:
(Current/Filed)
35,000ft
Speed:
(Current/Filed)
452kts
Departed: 31-Jul-20 06:33 PM
Arrived: 31-Jul-20 07:53 PM
Distance/Time
Traveled:
520nm/1:19
Distance/Time
To Go:
Arrived

Flight Plot

Page will automatically refresh every two minutes.


Map Options




Map Legend


Flown Route
Filed Route
Departure Airport
Arrival Airport
Navaid (VOR, NDB)
Fix

Horizontal Profiles

Position Reports

Time Latitude Longitude Heading Altitude Ground
Speed
31-Jul-20 17:51 45.591151 -122.594070 208 27ft 0kts
31-Jul-20 17:52 45.591151 -122.594070 208 27ft 0kts
31-Jul-20 17:53 45.591151 -122.594070 208 27ft 0kts
31-Jul-20 17:54 45.591151 -122.594070 208 27ft 0kts
31-Jul-20 17:55 45.591151 -122.594070 208 27ft 0kts
31-Jul-20 17:56 45.591151 -122.594070 208 27ft 0kts
31-Jul-20 17:57 45.591151 -122.594070 208 27ft 0kts
31-Jul-20 17:58 45.591151 -122.594070 208 27ft 0kts
31-Jul-20 17:59 45.591151 -122.594070 208 27ft 0kts
31-Jul-20 18:00 45.591151 -122.594070 208 27ft 0kts
31-Jul-20 18:01 45.591151 -122.594070 208 27ft 0kts
31-Jul-20 18:02 45.591151 -122.594070 208 27ft 0kts
31-Jul-20 18:03 45.591151 -122.594070 208 27ft 0kts
31-Jul-20 18:04 45.591151 -122.594070 208 27ft 0kts
31-Jul-20 18:05 45.591151 -122.594070 208 26ft 0kts
31-Jul-20 18:06 45.591151 -122.594070 208 26ft 0kts
31-Jul-20 18:07 45.591151 -122.594070 208 26ft 0kts
31-Jul-20 18:08 45.591151 -122.594070 208 26ft 0kts
31-Jul-20 18:09 45.591151 -122.594070 208 26ft 0kts
31-Jul-20 18:10 45.591151 -122.594070 208 26ft 0kts
31-Jul-20 18:11 45.591151 -122.594070 208 26ft 0kts
31-Jul-20 18:12 45.591151 -122.594070 208 26ft 0kts
31-Jul-20 18:13 45.591151 -122.594070 208 26ft 0kts
31-Jul-20 18:14 45.591151 -122.594070 208 26ft 0kts
31-Jul-20 18:15 45.591151 -122.594070 208 26ft 0kts
31-Jul-20 18:16 45.591151 -122.594070 208 26ft 0kts
31-Jul-20 18:17 45.591151 -122.594070 208 26ft 0kts
31-Jul-20 18:18 45.591151 -122.594070 208 26ft 0kts
31-Jul-20 18:19 45.591151 -122.594070 208 26ft 0kts
31-Jul-20 18:20 45.591152 -122.594069 208 27ft 0kts
31-Jul-20 18:21 45.591533 -122.593847 177 27ft 2kts
31-Jul-20 18:22 45.591914 -122.594213 117 27ft 0kts
31-Jul-20 18:23 45.591915 -122.594216 117 27ft 0kts
31-Jul-20 18:24 45.591915 -122.594216 117 27ft 0kts
31-Jul-20 18:25 45.591843 -122.593970 105 27ft 0kts
31-Jul-20 18:26 45.590009 -122.588843 123 27ft 20kts
31-Jul-20 18:27 45.588512 -122.582654 120 26ft 18kts
31-Jul-20 18:28 45.586054 -122.576404 119 26ft 16kts
31-Jul-20 18:29 45.584128 -122.571363 119 26ft 12kts
31-Jul-20 18:30 45.582733 -122.567529 82 26ft 0kts
31-Jul-20 18:31 45.583853 -122.567520 297 26ft 7kts
31-Jul-20 18:32 45.597969 -122.604233 297 469ft 190kts
31-Jul-20 18:33 45.624131 -122.689127 297 3106ft 260kts
31-Jul-20 18:34 45.664798 -122.776201 325 6447ft 274kts
31-Jul-20 18:35 45.734831 -122.761119 48 9471ft 287kts
31-Jul-20 18:36 45.758330 -122.665265 89 10849ft 336kts
31-Jul-20 18:37 45.757048 -122.558471 90 12590ft 361kts
31-Jul-20 18:38 45.759199 -122.410499 93 14912ft 379kts
31-Jul-20 18:39 45.755237 -122.257820 95 17251ft 390kts
31-Jul-20 18:40 45.751262 -122.101387 94 19279ft 403kts
31-Jul-20 18:41 45.748851 -121.938167 94 21180ft 417kts
31-Jul-20 18:42 45.746708 -121.769958 94 22867ft 430kts
31-Jul-20 18:43 45.745629 -121.596793 93 24425ft 441kts
31-Jul-20 18:44 45.744549 -121.417896 93 25859ft 453kts
31-Jul-20 18:45 45.743293 -121.236087 94 27211ft 462kts
31-Jul-20 18:46 45.741724 -121.050052 94 28316ft 474kts
31-Jul-20 18:47 45.739786 -120.859408 95 29391ft 484kts
31-Jul-20 18:48 45.737464 -120.664336 95 30377ft 494kts
31-Jul-20 18:49 45.734789 -120.467303 95 31561ft 497kts
31-Jul-20 18:50 45.731788 -120.269625 95 32730ft 497kts
31-Jul-20 18:51 45.728496 -120.072004 96 33770ft 497kts
31-Jul-20 18:52 45.724775 -119.874993 96 34824ft 495kts
31-Jul-20 18:53 45.720726 -119.678212 96 34933ft 493kts
31-Jul-20 18:54 45.716354 -119.482688 95 34932ft 492kts
31-Jul-20 18:55 45.711682 -119.287143 96 34907ft 493kts
31-Jul-20 18:56 45.706731 -119.091389 96 34877ft 493kts
31-Jul-20 18:57 45.681991 -118.903046 117 34895ft 477kts
31-Jul-20 18:58 45.629498 -118.730013 118 34935ft 475kts
31-Jul-20 18:59 45.574477 -118.558260 119 34936ft 475kts
31-Jul-20 19:00 45.518888 -118.387866 119 34935ft 474kts
31-Jul-20 19:01 45.463667 -118.220065 119 34913ft 474kts
31-Jul-20 19:02 45.407447 -118.050531 119 34868ft 474kts
31-Jul-20 19:03 45.350859 -117.881105 119 34914ft 474kts
31-Jul-20 19:04 45.293602 -117.712322 120 34935ft 474kts
31-Jul-20 19:05 45.235921 -117.545038 120 34935ft 473kts
31-Jul-20 19:06 45.178310 -117.376778 120 34935ft 474kts
31-Jul-20 19:07 45.120752 -117.208944 120 34898ft 474kts
31-Jul-20 19:08 45.063015 -117.041560 119 34879ft 476kts
31-Jul-20 19:09 45.004530 -116.873076 118 34929ft 479kts
31-Jul-20 19:10 44.945870 -116.705112 117 34940ft 475kts
31-Jul-20 19:11 44.887189 -116.538162 117 34979ft 476kts
31-Jul-20 19:12 44.828277 -116.371593 117 35019ft 476kts
31-Jul-20 19:13 44.772818 -116.202394 109 35052ft 477kts
31-Jul-20 19:14 44.739742 -116.022056 103 35050ft 479kts
31-Jul-20 19:15 44.711637 -115.838957 102 35045ft 478kts
31-Jul-20 19:16 44.683535 -115.656270 102 35045ft 478kts
31-Jul-20 19:17 44.655262 -115.474110 102 35045ft 478kts
31-Jul-20 19:18 44.626616 -115.291373 103 35050ft 478kts
31-Jul-20 19:19 44.597725 -115.108858 103 35052ft 479kts
31-Jul-20 19:20 44.568524 -114.926643 102 35046ft 478kts
31-Jul-20 19:21 44.539062 -114.744859 102 35045ft 478kts
31-Jul-20 19:22 44.509351 -114.563523 102 35045ft 478kts
31-Jul-20 19:24 44.479292 -114.382019 102 35048ft 478kts
31-Jul-20 19:25 44.449046 -114.200999 103 35053ft 478kts
31-Jul-20 19:26 44.418583 -114.020719 103 35047ft 478kts
31-Jul-20 19:27 44.387679 -113.839835 103 35045ft 478kts
31-Jul-20 19:28 44.356487 -113.659169 103 35045ft 478kts
31-Jul-20 19:29 44.325630 -113.482242 103 35046ft 478kts
31-Jul-20 19:30 44.293899 -113.302043 104 35052ft 478kts
31-Jul-20 19:31 44.261922 -113.122018 104 35050ft 478kts
31-Jul-20 19:32 44.229565 -112.941885 103 35045ft 478kts
31-Jul-20 19:33 44.196994 -112.762395 102 34938ft 477kts
31-Jul-20 19:34 44.164849 -112.586989 102 33937ft 466kts
31-Jul-20 19:35 44.132310 -112.411006 103 32940ft 472kts
31-Jul-20 19:36 44.099128 -112.233108 104 31933ft 473kts
31-Jul-20 19:37 44.070506 -112.055985 100 31065ft 463kts
31-Jul-20 19:38 44.045697 -111.879339 98 31063ft 469kts
31-Jul-20 19:39 44.021843 -111.702702 96 31063ft 465kts
31-Jul-20 19:40 43.999007 -111.525561 99 31078ft 465kts
31-Jul-20 19:40 43.978960 -111.380827 99 30094ft 463kts
31-Jul-20 19:42 43.950313 -111.173831 101 26545ft 443kts
31-Jul-20 19:43 43.943312 -111.014770 81 24642ft 403kts
31-Jul-20 19:43 43.955278 -110.882595 81 23075ft 411kts
31-Jul-20 19:44 43.968682 -110.729367 81 21232ft 396kts
31-Jul-20 19:45 43.982385 -110.580260 80 19403ft 383kts
31-Jul-20 19:46 43.946534 -110.453207 155 17632ft 366kts
31-Jul-20 19:47 43.859624 -110.491572 221 16598ft 359kts
31-Jul-20 19:48 43.813426 -110.606178 249 13616ft 336kts
31-Jul-20 19:49 43.753594 -110.677361 166 10638ft 312kts
31-Jul-20 19:50 43.678059 -110.702030 205 8186ft 259kts
31-Jul-20 19:51 43.622031 -110.730042 199 6606ft 198kts
31-Jul-20 19:52 43.597074 -110.742765 256 6415ft 5kts
31-Jul-20 19:53 43.599167 -110.740734 86 6418ft 8kts
31-Jul-20 19:54 43.601434 -110.739093 19 6424ft 16kts
31-Jul-20 19:55 43.603786 -110.737370 98 6430ft 6kts
31-Jul-20 19:56 43.603751 -110.737173 106 6431ft 0kts
31-Jul-20 19:57 43.603751 -110.737173 106 6431ft 0kts

Navigation Log

Ident Type
Flight plan parsing failed, navigation log unavailable